Flight Track Log - Related Links

Times and Time Zones

All times are in EDT time to prevent confusion due to time zone crossing. See the DAL1475 flight status page for this flight to view local times or setup timezone preferences in your user account.

Time Position Orientation Groundspeed Altitude Reporting Facility
EDT Latitude Longitude Course Direction KTS MPH feet Rate Location/Type
Wed 06:21:28 PM 32.1297 -81.1681 14° North 158 182 2,200  Level Jacksonville Center
Wed 06:22:28 PM 32.1839 -81.1522 14° North 158 182 4,300 2,000 Climbing Jacksonville Center
Wed 06:23:28 PM 32.2078 -81.2328 289° West 208 239 6,200 2,650 Climbing Jacksonville Center
Wed 06:24:28 PM 32.2319 -81.3133 290° West 277 319 9,600 3,000 Climbing Jacksonville Center
Wed 06:25:28 PM 32.2625 -81.4258 288° West 311 358 12,200 2,600 Climbing Jacksonville Center
Wed 06:26:28 PM 32.2908 -81.5433 286° West 365 420 14,800 2,750 Climbing Jacksonville Center
Wed 06:27:28 PM 32.3150 -81.6586 284° West 401 461 17,700 2,850 Climbing Jacksonville Center
Wed 06:28:28 PM 32.3478 -81.8033 285° West 406 467 20,500 2,150 Climbing Jacksonville Center
Wed 06:29:28 PM 32.3758 -81.9356 284° West 413 475 22,000 1,084 Climbing Jacksonville Center
Wed 06:29:51 PM 32.3847 -81.9825 283° West 415 478 22,000  Level Atlanta Center
Wed 06:30:51 PM 32.4119 -82.1147 284° West 410 472 22,000  Level Atlanta Center
Wed 06:31:51 PM 32.4411 -82.2472 285° West 410 472 22,000  Level Atlanta Center
Wed 06:32:51 PM 32.4658 -82.3747 283° West 410 472 22,000  Level Atlanta Center
Wed 06:33:51 PM 32.4947 -82.5022 285° West 410 472 22,000  Level Atlanta Center
Wed 06:34:51 PM 32.5192 -82.6247 283° West 404 465 22,000  Level Atlanta Center
Wed 06:35:51 PM 32.5456 -82.7453 285° West 392 451 22,000  Level Atlanta Center
Wed 06:36:51 PM 32.5822 -82.8656 290° West 392 451 22,000  Level Atlanta Center
Wed 06:37:51 PM 32.6456 -82.9558 310° West 383 441 22,000  Level Atlanta Center
Wed 06:39:00 PM 32.7091 -83.0519 308° West  Level FlightAware Approximate
Wed 06:39:51 PM 32.7786 -83.1544 308° West 393 452 22,000  Level Atlanta Center
Wed 06:40:51 PM 32.8461 -83.2550 309° West 393 452 22,000 -100 Level Atlanta Center
Wed 06:41:51 PM 32.9136 -83.3508 310° West 393 452 21,800 -900 Descending Atlanta Center
Wed 06:42:51 PM 32.9767 -83.4519 307° West 393 452 20,200 -1,450 Descending Atlanta Center
Wed 06:43:51 PM 33.0419 -83.5481 309° West 386 444 18,900 -1,400 Descending Atlanta Center
Wed 06:44:51 PM 33.1047 -83.6444 308° West 369 425 17,400 -1,800 Descending Atlanta Center
Wed 06:45:51 PM 33.1614 -83.7261 310° West 334 384 15,300 -2,026 Descending Atlanta Center
Wed 06:46:08 PM 33.1833 -83.7500 318° Northwest 318 366 14,800 -1,247 Descending Atlanta TRACON
Wed 06:47:08 PM 33.2333 -83.8333 306° West 315 362 13,700 -1,049 Descending Atlanta TRACON
Wed 06:47:51 PM 33.2703 -83.8922 307° West 318 366 13,000 -990 Descending Atlanta Center
Wed 06:48:51 PM 33.3267 -83.9742 309° West 319 367 12,000 -500 Descending Atlanta Center
Wed 06:49:51 PM 33.3789 -84.0561 307° West 319 367 12,000  Level Atlanta Center
Wed 06:51:08 PM 33.4500 -84.1500 312° West 282 325 12,000  Level Atlanta TRACON
Wed 06:52:08 PM 33.4833 -84.2167 301° West 285 328 12,000 -50 Level Atlanta TRACON
Wed 06:53:08 PM 33.5333 -84.3000 306° West 284 327 11,900 -684 Descending Atlanta TRACON
Wed 06:54:02 PM 33.5500 -84.3833 284° West 272 313 10,700 -1,650 Descending Atlanta TRACON
Wed 06:55:08 PM 33.5500 -84.4667 270° West 269 310 8,600 -1,950 Descending Atlanta TRACON
Wed 06:56:02 PM 33.5500 -84.5500 270° West 251 289 6,800 -1,737 Descending Atlanta TRACON
Wed 06:57:02 PM 33.5500 -84.6333 270° West 229 264 5,300 -1,450 Descending Atlanta TRACON
Wed 06:58:02 PM 33.5667 -84.6833 292° West 216 249 3,900 -1,190 Descending Atlanta TRACON
Wed 06:59:08 PM 33.6000 -84.6500 40° Northeast 187 215 2,800 -600 Descending Atlanta TRACON
Wed 07:00:02 PM 33.6333 -84.6000 51° Northeast 190 219 2,700 -211 Descending Atlanta TRACON
Wed 07:01:02 PM 33.6333 -84.5333 90° East 179 206 2,400 -500 Descending Atlanta TRACON
Wed 07:02:02 PM 33.6333 -84.4833 90° East 132 152 1,700 -700 Descending Atlanta TRACON

Login

Don't have an account? Register now (free) for customized features, flight alerts, and more!